createdAt,value
2019-02-28T00:00:06.544Z,2.37
2019-02-28T00:02:34.036Z,3.75
2019-02-28T00:05:05.803Z,3.72
2019-02-28T00:07:30.730Z,4.47
2019-02-28T00:09:58.442Z,3.10
2019-02-28T00:12:26.071Z,4.28
2019-02-28T00:14:53.462Z,4.37
2019-02-28T00:17:20.824Z,3.55
2019-02-28T00:19:48.263Z,3.80
2019-02-28T00:22:15.690Z,3.45
2019-02-28T00:24:43.150Z,4.75
2019-02-28T00:27:10.503Z,8.30
2019-02-28T00:29:37.985Z,6.17
2019-02-28T00:32:05.445Z,3.15
2019-02-28T00:34:32.915Z,4.30
2019-02-28T00:37:00.341Z,8.28
2019-02-28T00:39:27.750Z,3.80
2019-02-28T00:41:55.180Z,3.55
2019-02-28T00:44:22.615Z,2.67
2019-02-28T00:46:50.027Z,4.37
2019-02-28T00:49:17.458Z,5.10
2019-02-28T00:51:45.179Z,4.22
2019-02-28T00:54:12.788Z,7.05
2019-02-28T00:56:40.202Z,5.30
2019-02-28T00:59:07.559Z,12.80
2019-02-28T01:01:34.914Z,3.83
2019-02-28T01:04:02.264Z,3.27
2019-02-28T01:06:29.711Z,5.50
2019-02-28T01:08:57.207Z,2.95
2019-02-28T01:11:24.658Z,3.45
2019-02-28T01:13:52.032Z,3.60
2019-02-28T01:16:20.122Z,3.83
2019-02-28T01:18:47.503Z,4.05
2019-02-28T01:21:14.991Z,3.90
2019-02-28T01:23:42.470Z,4.45
2019-02-28T01:26:11.708Z,4.58
2019-02-28T01:28:39.592Z,7.30
2019-02-28T01:31:07.117Z,5.40
2019-02-28T01:33:34.772Z,3.65
2019-02-28T01:36:02.214Z,5.35
2019-02-28T01:38:29.588Z,4.03
2019-02-28T01:40:57.291Z,5.35
2019-02-28T01:43:28.497Z,7.12
2019-02-28T01:45:54.153Z,6.97
2019-02-28T01:48:22.675Z,4.95
2019-02-28T01:50:50.672Z,7.80
2019-02-28T01:53:19.513Z,4.92
2019-02-28T01:55:47.100Z,4.78
2019-02-28T01:58:16.888Z,5.37
2019-02-28T02:00:44.767Z,4.50
2019-02-28T02:03:12.427Z,5.47
2019-02-28T02:05:40.401Z,6.03
2019-02-28T02:08:07.920Z,5.03
2019-02-28T02:10:35.603Z,5.85
2019-02-28T02:13:03.442Z,6.92
2019-02-28T02:15:31.907Z,6.17
2019-02-28T02:17:59.413Z,7.00
2019-02-28T02:20:26.986Z,7.72
2019-02-28T02:22:54.564Z,10.28
2019-02-28T02:25:21.954Z,9.53
2019-02-28T02:27:52.825Z,7.00
2019-02-28T02:30:20.012Z,7.17
2019-02-28T02:32:47.482Z,6.55
2019-02-28T02:35:15.064Z,8.03
2019-02-28T02:37:42.554Z,8.13
2019-02-28T02:40:10.490Z,11.50
2019-02-28T02:42:37.961Z,12.82
2019-02-28T02:45:06.739Z,9.95
2019-02-28T02:47:34.213Z,10.05
2019-02-28T02:50:01.603Z,8.95
2019-02-28T02:52:30.538Z,9.20
2019-02-28T02:54:58.048Z,8.18
2019-02-28T02:57:25.452Z,6.80
2019-02-28T02:59:53.169Z,8.23
2019-02-28T03:02:20.649Z,7.60
2019-02-28T03:04:48.017Z,6.80
2019-02-28T03:07:23.014Z,5.83
2019-02-28T03:09:44.894Z,6.20
2019-02-28T03:12:12.359Z,5.90
2019-02-28T03:14:39.767Z,7.15
2019-02-28T03:17:11.507Z,7.10
2019-02-28T03:19:36.431Z,9.35
2019-02-28T03:22:03.889Z,6.30
2019-02-28T03:24:31.424Z,6.55
2019-02-28T03:26:58.865Z,7.25
2019-02-28T03:29:26.266Z,5.95
2019-02-28T03:31:56.593Z,6.40
2019-02-28T03:34:22.850Z,10.35
2019-02-28T03:36:55.454Z,8.78
2019-02-28T03:39:24.115Z,9.23
2019-02-28T03:41:52.949Z,11.38
2019-02-28T03:44:21.384Z,12.10
2019-02-28T03:46:47.981Z,9.25
2019-02-28T03:49:15.455Z,10.55
2019-02-28T03:51:42.774Z,9.65
2019-02-28T03:54:10.258Z,12.53
2019-02-28T03:56:37.698Z,9.28
2019-02-28T03:59:05.169Z,9.18
2019-02-28T04:01:32.506Z,7.92
2019-02-28T04:04:00.008Z,8.65
2019-02-28T04:06:27.333Z,8.93
2019-02-28T04:08:54.764Z,8.10
2019-02-28T04:11:22.198Z,8.70
2019-02-28T04:13:52.435Z,7.80
2019-02-28T04:16:19.018Z,8.05
2019-02-28T04:18:47.578Z,7.72
2019-02-28T04:21:15.174Z,9.28
2019-02-28T04:23:42.560Z,7.97
2019-02-28T04:26:10.007Z,6.70
2019-02-28T04:28:37.314Z,6.95
2019-02-28T04:31:04.935Z,8.05
2019-02-28T04:33:37.526Z,11.35
2019-02-28T04:36:01.711Z,12.73
2019-02-28T04:38:29.153Z,12.05
2019-02-28T04:40:58.851Z,10.68
2019-02-28T04:43:25.796Z,12.03
2019-02-28T04:45:53.385Z,12.28
2019-02-28T04:48:20.942Z,12.23
2019-02-28T04:50:48.389Z,15.25
2019-02-28T04:53:18.880Z,12.43
2019-02-28T04:55:45.828Z,9.60
2019-02-28T04:58:13.264Z,8.13
2019-02-28T05:00:40.725Z,11.97
2019-02-28T05:03:08.158Z,9.20
2019-02-28T05:05:35.943Z,7.62
2019-02-28T05:08:05.729Z,8.20
2019-02-28T05:10:33.062Z,7.45
2019-02-28T05:13:00.839Z,12.47
2019-02-28T05:15:28.334Z,9.75
2019-02-28T05:17:56.796Z,9.05
2019-02-28T05:20:24.297Z,8.83
2019-02-28T05:22:52.096Z,11.95
2019-02-28T05:25:19.550Z,10.40
2019-02-28T05:27:47.560Z,7.65
2019-02-28T05:30:17.974Z,8.70
2019-02-28T05:32:44.235Z,10.43
2019-02-28T05:35:11.825Z,11.60
2019-02-28T05:37:39.754Z,9.90
2019-02-28T05:40:08.936Z,11.45
2019-02-28T05:42:36.384Z,12.23
2019-02-28T05:45:04.093Z,10.13
2019-02-28T05:47:32.463Z,12.07
2019-02-28T05:50:01.204Z,16.97
2019-02-28T05:52:30.546Z,10.20
2019-02-28T05:54:57.990Z,13.05
2019-02-28T05:57:25.529Z,12.30
2019-02-28T05:59:53.481Z,14.10
2019-02-28T06:02:22.525Z,12.35
2019-02-28T06:04:51.262Z,16.45
2019-02-28T06:07:18.803Z,17.75
2019-02-28T06:09:48.683Z,21.77
2019-02-28T06:12:15.752Z,20.75
2019-02-28T06:14:43.271Z,22.25
2019-02-28T06:17:10.738Z,20.17
2019-02-28T06:19:40.279Z,22.37
2019-02-28T06:22:08.292Z,25.17
2019-02-28T06:24:35.935Z,23.45
2019-02-28T06:27:03.708Z,28.77
2019-02-28T06:29:33.154Z,26.70
2019-02-28T06:32:00.625Z,24.37
2019-02-28T06:34:28.052Z,21.95
2019-02-28T06:36:55.579Z,27.73
2019-02-28T06:39:22.978Z,26.70
2019-02-28T06:41:50.389Z,23.57
2019-02-28T06:44:18.406Z,25.70
2019-02-28T06:46:46.482Z,21.77
2019-02-28T06:49:13.939Z,24.87
2019-02-28T06:51:41.789Z,26.23
2019-02-28T06:54:09.335Z,28.52
2019-02-28T06:56:36.785Z,28.50
2019-02-28T06:59:04.947Z,29.92
2019-02-28T07:01:32.917Z,24.32
2019-02-28T07:04:00.343Z,26.90
2019-02-28T07:06:27.670Z,28.40
2019-02-28T07:08:55.064Z,35.50
2019-02-28T07:11:22.541Z,34.40
2019-02-28T07:13:50.075Z,33.65
2019-02-28T07:16:17.607Z,31.73
2019-02-28T07:18:44.994Z,33.08
2019-02-28T07:21:12.727Z,26.90
2019-02-28T07:23:40.465Z,31.87
2019-02-28T07:26:07.986Z,27.35
2019-02-28T07:28:37.477Z,26.45
2019-02-28T07:31:04.699Z,33.48
2019-02-28T07:33:32.637Z,32.58
2019-02-28T07:36:00.125Z,28.25
2019-02-28T07:38:29.016Z,35.20
2019-02-28T07:40:56.851Z,31.97
2019-02-28T07:43:24.281Z,30.17
2019-02-28T07:45:52.278Z,33.95
2019-02-28T07:48:19.631Z,32.38
2019-02-28T07:50:47.710Z,32.70
2019-02-28T07:53:15.185Z,40.08
2019-02-28T07:55:42.762Z,34.48
2019-02-28T07:58:10.320Z,34.00
2019-02-28T08:00:38.048Z,33.15
2019-02-28T08:03:06.030Z,42.23
2019-02-28T08:05:33.398Z,34.33
2019-02-28T08:08:00.849Z,35.68
2019-02-28T08:10:28.690Z,44.13
2019-02-28T08:12:56.453Z,44.48
2019-02-28T08:15:23.989Z,45.85
2019-02-28T08:17:51.526Z,44.08
2019-02-28T08:20:19.742Z,48.92
2019-02-28T08:22:47.289Z,54.48
2019-02-28T08:25:14.825Z,43.02
2019-02-28T08:27:42.240Z,36.98
2019-02-28T08:30:19.593Z,42.25
2019-02-28T08:32:47.229Z,31.37
2019-02-28T08:35:14.972Z,33.45
2019-02-28T08:37:42.392Z,36.00
2019-02-28T08:40:12.547Z,34.65
2019-02-28T08:42:41.745Z,36.28
2019-02-28T08:45:10.897Z,38.63
2019-02-28T08:47:38.284Z,40.28
2019-02-28T08:50:08.096Z,38.70
2019-02-28T08:52:37.676Z,37.33
2019-02-28T08:55:09.082Z,33.15
2019-02-28T08:57:35.921Z,38.00
2019-02-28T09:00:04.379Z,34.73
2019-02-28T09:02:31.713Z,38.40
2019-02-28T09:04:59.172Z,39.50
2019-02-28T09:07:27.280Z,41.45
2019-02-28T09:09:54.928Z,37.05
2019-02-28T09:12:22.688Z,39.50
2019-02-28T09:14:51.972Z,42.17
2019-02-28T09:17:19.693Z,35.73
2019-02-28T09:19:47.155Z,36.35
2019-02-28T09:22:14.556Z,30.65
2019-02-28T09:24:43.722Z,37.98
2019-02-28T09:27:12.277Z,38.73
2019-02-28T09:29:39.905Z,51.55
2019-02-28T09:32:10.228Z,31.12
2019-02-28T09:34:37.462Z,29.30
2019-02-28T09:37:04.902Z,32.58
2019-02-28T09:39:32.390Z,40.70
2019-02-28T09:41:59.819Z,34.35
2019-02-28T09:44:31.330Z,33.98
2019-02-28T09:46:57.090Z,30.90
2019-02-28T09:49:24.761Z,32.80
2019-02-28T09:51:52.337Z,38.38
2019-02-28T09:54:21.381Z,33.10
2019-02-28T09:56:49.352Z,35.68
2019-02-28T09:59:16.882Z,32.17
2019-02-28T10:01:45.098Z,27.05
2019-02-28T10:04:12.586Z,34.98
2019-02-28T10:06:40.071Z,27.37
2019-02-28T10:09:08.754Z,35.85
2019-02-28T10:11:37.298Z,31.65
2019-02-28T10:14:05.408Z,39.38
2019-02-28T10:16:33.027Z,33.35
2019-02-28T10:19:01.485Z,31.30
2019-02-28T10:21:29.483Z,31.50
2019-02-28T10:23:57.913Z,27.52
2019-02-28T10:26:25.827Z,33.05
2019-02-28T10:28:53.337Z,31.87
2019-02-28T10:31:22.859Z,35.80
2019-02-28T10:33:52.500Z,30.08
2019-02-28T10:36:19.735Z,31.40
2019-02-28T10:38:47.524Z,31.00
2019-02-28T10:41:15.450Z,28.50
2019-02-28T10:43:43.183Z,28.17
2019-02-28T10:46:13.325Z,27.65
2019-02-28T10:48:50.449Z,31.27
2019-02-28T10:51:13.918Z,28.52
2019-02-28T10:53:40.142Z,28.57
2019-02-28T10:56:08.803Z,34.55
2019-02-28T10:58:36.321Z,29.80
2019-02-28T11:01:08.664Z,32.78
2019-02-28T11:03:35.258Z,34.30
2019-02-28T11:06:02.681Z,29.12
2019-02-28T11:08:30.356Z,36.23
2019-02-28T11:10:58.539Z,29.37
2019-02-28T11:13:28.581Z,32.98
2019-02-28T11:15:55.348Z,30.82
2019-02-28T11:18:23.400Z,33.50
2019-02-28T11:20:51.766Z,30.82
2019-02-28T11:23:20.504Z,30.77
2019-02-28T11:25:47.953Z,32.90
2019-02-28T11:28:15.475Z,30.88
2019-02-28T11:30:44.751Z,31.20
2019-02-28T11:33:13.001Z,29.95
2019-02-28T11:35:40.924Z,31.62
2019-02-28T11:38:08.714Z,28.05
2019-02-28T11:40:36.448Z,30.50
2019-02-28T11:43:04.072Z,23.83
2019-02-28T11:45:32.489Z,27.48
2019-02-28T11:48:01.299Z,27.30
2019-02-28T11:50:29.258Z,30.40
2019-02-28T11:53:03.254Z,29.52
2019-02-28T11:55:27.160Z,29.05
2019-02-28T11:57:54.595Z,29.02
2019-02-28T12:00:27.648Z,34.33
2019-02-28T12:02:59.938Z,26.20
2019-02-28T12:05:25.213Z,34.27
2019-02-28T12:07:52.822Z,27.73
2019-02-28T12:10:20.130Z,26.93
2019-02-28T12:12:47.552Z,27.02
2019-02-28T12:15:16.036Z,27.05
2019-02-28T12:17:43.547Z,28.98
2019-02-28T12:20:11.828Z,28.38
2019-02-28T12:22:39.288Z,23.32
2019-02-28T12:25:08.366Z,30.10
2019-02-28T12:27:35.797Z,29.27
2019-02-28T12:30:04.688Z,35.33
2019-02-28T12:32:32.155Z,25.60
2019-02-28T12:35:01.369Z,23.10
2019-02-28T12:37:29.209Z,28.83
2019-02-28T12:39:56.938Z,28.02
2019-02-28T12:42:24.320Z,28.73
2019-02-28T12:44:51.658Z,20.43
2019-02-28T12:47:19.416Z,26.48
2019-02-28T12:49:47.199Z,25.35
2019-02-28T12:52:15.356Z,31.80
2019-02-28T12:54:43.050Z,25.12
2019-02-28T12:57:11.261Z,25.35
2019-02-28T12:59:41.911Z,23.45
2019-02-28T13:02:09.324Z,22.02
2019-02-28T13:04:37.448Z,23.60
2019-02-28T13:07:04.808Z,24.65
2019-02-28T13:09:32.609Z,21.70
2019-02-28T13:12:00.124Z,22.65
2019-02-28T13:14:28.338Z,23.87
2019-02-28T13:16:57.556Z,24.52
2019-02-28T13:19:25.243Z,25.20
2019-02-28T13:21:52.765Z,40.25
2019-02-28T13:24:20.268Z,26.57
2019-02-28T13:26:48.306Z,33.18
2019-02-28T13:29:16.149Z,32.55
2019-02-28T13:31:43.872Z,23.95
2019-02-28T13:34:11.739Z,23.50
2019-02-28T13:36:39.926Z,23.62
2019-02-28T13:39:08.203Z,34.53
2019-02-28T13:41:36.036Z,26.30
2019-02-28T13:44:03.698Z,24.02
2019-02-28T13:46:33.915Z,25.12
2019-02-28T13:49:00.651Z,28.47
2019-02-28T13:51:28.117Z,28.50
2019-02-28T13:53:55.710Z,28.12
2019-02-28T13:56:23.406Z,26.30
2019-02-28T13:58:53.669Z,29.57
2019-02-28T14:01:20.390Z,29.77
2019-02-28T14:03:47.807Z,27.65
2019-02-28T14:06:19.647Z,21.42
2019-02-28T14:08:46.009Z,25.10
2019-02-28T14:11:14.432Z,26.40
2019-02-28T14:13:41.966Z,34.90
2019-02-28T14:16:09.546Z,27.70
2019-02-28T14:18:37.100Z,26.57
2019-02-28T14:21:04.468Z,19.15
2019-02-28T14:23:32.283Z,28.00
2019-02-28T14:25:59.640Z,23.75
2019-02-28T14:28:27.272Z,28.83
2019-02-28T14:30:57.571Z,28.98
2019-02-28T14:33:25.888Z,30.35
2019-02-28T14:35:53.406Z,24.12
2019-02-28T14:38:20.724Z,26.20
2019-02-28T14:40:49.703Z,24.40
2019-02-28T14:43:19.643Z,24.18
2019-02-28T14:45:47.841Z,23.47
2019-02-28T14:48:15.232Z,22.45
2019-02-28T14:50:42.861Z,24.35
2019-02-28T14:53:13.105Z,21.12
2019-02-28T14:55:39.551Z,23.27
2019-02-28T14:58:07.052Z,23.95
2019-02-28T15:00:35.423Z,19.37
2019-02-28T15:03:03.939Z,23.67
2019-02-28T15:05:31.491Z,23.27
2019-02-28T15:07:59.290Z,16.02
2019-02-28T15:10:27.029Z,19.20
2019-02-28T15:12:55.397Z,16.85
2019-02-28T15:15:24.371Z,20.55
2019-02-28T15:17:51.802Z,21.07
2019-02-28T15:20:19.164Z,18.45
2019-02-28T15:22:46.685Z,16.25
2019-02-28T15:25:18.436Z,20.85
2019-02-28T15:27:44.947Z,16.95
2019-02-28T15:30:14.768Z,14.90
2019-02-28T15:32:42.184Z,18.20
2019-02-28T15:35:12.427Z,16.55
2019-02-28T15:37:40.973Z,25.92
2019-02-28T15:40:10.626Z,18.57
2019-02-28T15:42:39.674Z,14.43
2019-02-28T15:45:08.203Z,17.40
2019-02-28T15:47:35.821Z,25.52
2019-02-28T15:50:04.364Z,25.45
2019-02-28T15:52:31.728Z,25.10
2019-02-28T15:55:01.983Z,24.10
2019-02-28T15:57:30.118Z,26.07
2019-02-28T15:59:58.653Z,32.73
2019-02-28T16:02:26.439Z,26.10
2019-02-28T16:04:54.060Z,26.73
2019-02-28T16:07:21.583Z,25.48
2019-02-28T16:09:50.828Z,29.65
2019-02-28T16:12:18.262Z,22.58
2019-02-28T16:14:45.662Z,19.75
2019-02-28T16:17:13.386Z,20.70
2019-02-28T16:19:40.693Z,16.15
2019-02-28T16:22:08.146Z,16.60
2019-02-28T16:24:36.781Z,18.60
2019-02-28T16:27:04.689Z,16.60
2019-02-28T16:29:32.034Z,15.18
2019-02-28T16:31:59.820Z,13.55
2019-02-28T16:34:27.341Z,13.22
2019-02-28T16:36:57.422Z,12.43
2019-02-28T16:39:23.986Z,16.48
2019-02-28T16:41:51.452Z,10.13
2019-02-28T16:44:18.996Z,14.23
2019-02-28T16:46:49.909Z,11.65
2019-02-28T16:49:15.685Z,10.58
2019-02-28T16:51:43.192Z,12.63
2019-02-28T16:54:10.564Z,12.95
2019-02-28T16:56:38.786Z,14.00
2019-02-28T16:59:06.180Z,15.03
2019-02-28T17:01:33.580Z,12.05
2019-02-28T17:04:01.309Z,15.00
2019-02-28T17:06:28.841Z,12.40
2019-02-28T17:09:33.555Z,14.45
2019-02-28T17:12:12.810Z,14.43
2019-02-28T17:14:40.362Z,10.98
2019-02-28T17:17:12.526Z,11.70
2019-02-28T17:19:39.946Z,10.28
2019-02-28T17:22:07.415Z,12.90
2019-02-28T17:24:35.107Z,10.18
2019-02-28T17:27:17.711Z,12.13
2019-02-28T17:30:17.060Z,11.28
2019-02-28T17:32:44.910Z,11.55
2019-02-28T17:35:12.715Z,11.25
2019-02-28T17:37:41.119Z,12.63
2019-02-28T17:40:08.547Z,10.05
2019-02-28T17:42:35.888Z,14.85
2019-02-28T17:45:33.261Z,15.88
2019-02-28T17:48:39.125Z,13.38
2019-02-28T17:51:09.804Z,15.48
2019-02-28T17:53:46.548Z,15.65
2019-02-28T17:56:46.618Z,11.45
2019-02-28T18:00:00.518Z,10.68
2019-02-28T18:03:22.013Z,13.08
2019-02-28T18:06:33.665Z,13.32
2019-02-28T18:09:41.586Z,12.73
2019-02-28T18:12:35.566Z,12.90
2019-02-28T18:15:42.117Z,11.70
2019-02-28T18:18:46.121Z,14.58
2019-02-28T18:21:37.485Z,11.03
2019-02-28T18:24:51.509Z,13.78
2019-02-28T18:28:12.930Z,16.20
2019-02-28T18:31:12.368Z,13.10
2019-02-28T18:33:45.750Z,15.83
2019-02-28T18:36:15.499Z,15.75
2019-02-28T18:38:43.136Z,16.15
2019-02-28T18:41:10.810Z,16.07
2019-02-28T18:43:40.358Z,18.77
2019-02-28T18:46:07.932Z,13.53
2019-02-28T18:48:35.486Z,13.62
2019-02-28T18:51:03.399Z,14.20
2019-02-28T18:53:31.049Z,17.12
2019-02-28T18:55:58.551Z,16.85
2019-02-28T18:58:26.392Z,29.25
2019-02-28T19:00:54.172Z,35.80
2019-02-28T19:03:22.159Z,23.22
2019-02-28T19:05:49.744Z,27.45
2019-02-28T19:08:17.202Z,17.57
2019-02-28T19:10:44.685Z,14.13
2019-02-28T19:13:13.009Z,13.28
2019-02-28T19:15:40.398Z,19.12
2019-02-28T19:18:08.492Z,17.15
2019-02-28T19:20:36.176Z,16.12
2019-02-28T19:23:03.717Z,13.65
2019-02-28T19:25:31.392Z,22.40
2019-02-28T19:27:59.147Z,16.30
2019-02-28T19:30:27.029Z,18.62
2019-02-28T19:32:54.691Z,16.00
2019-02-28T19:35:22.304Z,18.02
2019-02-28T19:37:49.737Z,17.35
2019-02-28T19:40:17.249Z,19.27
2019-02-28T19:42:44.729Z,18.30
2019-02-28T19:45:12.808Z,15.60
2019-02-28T19:47:40.331Z,13.98
2019-02-28T19:50:08.908Z,19.10
2019-02-28T19:52:36.443Z,18.77
2019-02-28T19:55:04.420Z,14.73
2019-02-28T19:57:32.675Z,18.00
2019-02-28T20:00:00.374Z,13.68
2019-02-28T20:02:27.797Z,18.40
2019-02-28T20:04:55.403Z,18.32
2019-02-28T20:07:23.463Z,16.10
2019-02-28T20:09:51.136Z,23.00
2019-02-28T20:12:18.613Z,14.53
2019-02-28T20:14:46.521Z,16.15
2019-02-28T20:17:14.265Z,17.12
2019-02-28T20:19:41.650Z,16.85
2019-02-28T20:22:09.352Z,18.30
2019-02-28T20:24:37.018Z,19.32
2019-02-28T20:27:04.510Z,18.98
2019-02-28T20:29:32.191Z,18.05
2019-02-28T20:31:59.753Z,22.73
2019-02-28T20:34:29.106Z,15.03
2019-02-28T20:36:58.030Z,14.35
2019-02-28T20:39:26.236Z,16.23
2019-02-28T20:41:54.501Z,12.88
2019-02-28T20:44:22.179Z,14.78
2019-02-28T20:46:49.579Z,15.45
2019-02-28T20:49:17.060Z,14.10
2019-02-28T20:51:54.634Z,13.32
2019-02-28T20:54:14.543Z,17.07
2019-02-28T20:56:42.152Z,13.32
2019-02-28T20:59:10.159Z,11.38
2019-02-28T21:01:38.147Z,22.17
2019-02-28T21:04:05.795Z,13.25
2019-02-28T21:06:33.487Z,13.38
2019-02-28T21:09:01.147Z,10.50
2019-02-28T21:11:28.586Z,19.95
2019-02-28T21:13:56.363Z,13.32
2019-02-28T21:16:23.834Z,12.28
2019-02-28T21:18:51.332Z,16.10
2019-02-28T21:21:18.792Z,13.10
2019-02-28T21:23:46.602Z,13.75
2019-02-28T21:26:14.422Z,11.88
2019-02-28T21:28:41.875Z,12.65
2019-02-28T21:31:09.322Z,14.23
2019-02-28T21:33:36.742Z,17.32
2019-02-28T21:36:04.204Z,13.00
2019-02-28T21:38:32.010Z,14.78
2019-02-28T21:44:29.885Z,14.60
2019-02-28T21:46:57.920Z,14.00
2019-02-28T21:49:25.309Z,11.20
2019-02-28T21:51:53.669Z,13.03
2019-02-28T21:54:21.135Z,11.70
2019-02-28T21:56:48.525Z,12.90
2019-02-28T21:59:16.461Z,13.60
2019-02-28T22:01:44.076Z,12.95
2019-02-28T22:04:11.473Z,9.90
2019-02-28T22:06:38.873Z,14.47
2019-02-28T22:09:07.662Z,7.78
2019-02-28T22:11:35.202Z,10.03
2019-02-28T22:14:02.608Z,12.90
2019-02-28T22:16:29.927Z,11.20
2019-02-28T22:18:58.309Z,12.20
2019-02-28T22:21:26.121Z,13.50
2019-02-28T22:23:53.796Z,13.62
2019-02-28T22:26:21.253Z,10.23
2019-02-28T22:28:48.954Z,9.93
2019-02-28T22:31:45.640Z,7.17
2019-02-28T22:34:23.032Z,8.10
2019-02-28T22:36:50.499Z,6.87
2019-02-28T22:39:17.947Z,11.28
2019-02-28T22:41:45.718Z,6.92
2019-02-28T22:44:13.639Z,9.15
2019-02-28T22:46:41.099Z,8.23
2019-02-28T22:49:08.816Z,10.15
2019-02-28T22:51:36.249Z,8.58
2019-02-28T22:54:03.790Z,10.98
2019-02-28T22:56:31.685Z,10.32
2019-02-28T22:58:59.813Z,8.88
2019-02-28T23:01:27.450Z,8.18
2019-02-28T23:03:55.348Z,11.43
2019-02-28T23:06:22.796Z,9.23
2019-02-28T23:08:50.205Z,7.22
2019-02-28T23:11:18.107Z,9.40
2019-02-28T23:13:45.479Z,11.85
2019-02-28T23:16:12.836Z,8.58
2019-02-28T23:18:40.129Z,10.45
2019-02-28T23:21:07.800Z,7.05
2019-02-28T23:23:35.748Z,8.30
2019-02-28T23:26:06.486Z,11.33
2019-02-28T23:28:36.110Z,9.45
2019-02-28T23:31:45.446Z,8.88
2019-02-28T23:34:18.699Z,10.15
2019-02-28T23:36:46.155Z,8.23
2019-02-28T23:39:13.598Z,11.08
2019-02-28T23:41:41.357Z,9.28
2019-02-28T23:44:08.744Z,8.13
2019-02-28T23:46:36.240Z,8.20
2019-02-28T23:49:03.691Z,8.80
2019-02-28T23:51:31.151Z,7.42
2019-02-28T23:53:58.587Z,7.10
2019-02-28T23:56:26.000Z,4.50
2019-02-28T23:58:53.482Z,7.78
